Time;durP1;ratioP1;P1;durP2;ratioP2;P2;SDS_P1;SDS_P2;PMS_P1;PMS_P2;Temp;Humidity;BMP_temperature;BMP_pressure;BME280_temperature;BME280_humidity;BME280_pressure;Samples;Min_cycle;Max_cycle;Signal;HPM_P1;HPM_P2
2023/05/18 00:01:04;;;;;;;22.20;4.83;;;7.40;99.90;;;;;;5049024;28;20477;-73
2023/05/18 00:03:32;;;;;;;17.90;5.00;;;7.40;99.90;;;;;;5044378;28;20458;-72
2023/05/18 00:06:05;;;;;;;9.00;4.13;;;7.30;99.90;;;;;;5053105;28;20934;-72
2023/05/18 00:08:32;;;;;;;13.33;4.73;;;7.30;99.90;;;;;;5052037;28;21005;-72
2023/05/18 00:10:59;;;;;;;12.17;5.23;;;7.30;99.90;;;;;;5053048;28;20473;-73
2023/05/18 00:13:25;;;;;;;18.80;5.00;;;7.30;99.90;;;;;;5052512;28;20461;-72
2023/05/18 00:15:53;;;;;;;9.33;5.03;;;7.30;99.90;;;;;;5052653;28;20872;-72
2023/05/18 00:18:22;;;;;;;22.73;4.90;;;7.30;99.90;;;;;;5052512;28;20511;-72
2023/05/18 00:20:49;;;;;;;11.70;4.93;;;7.20;99.90;;;;;;5053252;28;20469;-72
2023/05/18 00:23:16;;;;;;;12.20;4.67;;;7.20;99.90;;;;;;5043940;28;20460;-72
2023/05/18 00:25:43;;;;;;;11.93;4.87;;;7.20;99.90;;;;;;5045091;28;20510;-72
2023/05/18 00:28:11;;;;;;;12.40;5.33;;;7.10;99.90;;;;;;5048421;28;21077;-72
2023/05/18 00:30:38;;;;;;;11.93;4.50;;;7.00;99.90;;;;;;5043398;28;20985;-72
2023/05/18 00:33:06;;;;;;;18.63;5.80;;;7.00;99.90;;;;;;5052388;28;20456;-72
2023/05/18 00:35:32;;;;;;;9.27;5.77;;;6.90;99.90;;;;;;5052103;28;20869;-72
2023/05/18 00:37:59;;;;;;;16.20;5.40;;;6.90;99.90;;;;;;5052283;28;20514;-72
2023/05/18 00:40:27;;;;;;;17.90;6.50;;;6.80;99.90;;;;;;5052348;28;20566;-72
2023/05/18 00:42:54;;;;;;;14.43;5.70;;;6.80;99.90;;;;;;5052434;28;21009;-72
2023/05/18 00:45:20;;;;;;;15.27;5.47;;;6.80;99.90;;;;;;5045658;28;20457;-72
2023/05/18 00:47:47;;;;;;;11.90;4.60;;;6.80;99.90;;;;;;5043726;28;20534;-72
2023/05/18 00:50:15;;;;;;;14.83;5.50;;;6.80;99.90;;;;;;5052141;28;20507;-72
2023/05/18 00:52:43;;;;;;;9.77;4.97;;;6.80;99.90;;;;;;5043834;28;20836;-72
2023/05/18 00:55:12;;;;;;;11.67;4.77;;;6.80;99.90;;;;;;5049189;28;21005;-72
2023/05/18 00:57:40;;;;;;;9.10;4.47;;;6.80;99.90;;;;;;5043164;28;20450;-72
2023/05/18 01:00:09;;;;;;;14.17;5.30;;;6.80;99.90;;;;;;5051815;28;20461;-73
2023/05/18 01:02:41;;;;;;;8.10;4.73;;;6.70;99.90;;;;;;5051840;28;20664;-72
2023/05/18 01:05:09;;;;;;;8.63;4.47;;;6.70;99.90;;;;;;5051479;28;20459;-72
2023/05/18 01:07:41;;;;;;;11.80;4.07;;;6.70;99.90;;;;;;5051290;28;20488;-72
2023/05/18 01:10:09;;;;;;;13.53;4.00;;;6.60;99.90;;;;;;5051980;28;20456;-72
2023/05/18 01:12:41;;;;;;;11.03;4.63;;;6.60;99.90;;;;;;5051300;28;20510;-72
2023/05/18 01:15:10;;;;;;;11.90;4.37;;;6.60;99.90;;;;;;5051961;28;20488;-72
2023/05/18 01:17:46;;;;;;;14.80;4.60;;;6.50;99.90;;;;;;5047702;28;20452;-72
2023/05/18 01:20:21;;;;;;;15.47;4.60;;;6.50;99.90;;;;;;5040154;28;20469;-72
2023/05/18 01:23:08;;;;;;;8.17;4.77;;;6.40;99.90;;;;;;5044274;28;20952;-72
2023/05/18 01:25:47;;;;;;;11.77;4.50;;;6.40;99.90;;;;;;5047699;28;20468;-72
2023/05/18 01:28:17;;;;;;;14.13;4.83;;;6.30;99.90;;;;;;5042793;28;20587;-72
2023/05/18 01:30:45;;;;;;;7.30;4.40;;;6.30;99.90;;;;;;5048251;28;20477;-72
2023/05/18 01:33:13;;;;;;;15.17;4.87;;;6.30;99.90;;;;;;5051593;28;20548;-72
2023/05/18 01:35:46;;;;;;;8.47;4.17;;;6.20;99.90;;;;;;5051184;28;20464;-72
2023/05/18 01:38:14;;;;;;;13.10;4.80;;;6.20;99.90;;;;;;5051229;28;20452;-72
2023/05/18 01:40:47;;;;;;;9.67;4.80;;;6.10;99.90;;;;;;5050295;28;20485;-72
2023/05/18 01:43:20;;;;;;;13.30;5.10;;;6.10;99.90;;;;;;5050938;28;20456;-72
2023/05/18 01:45:49;;;;;;;11.33;5.37;;;6.10;99.90;;;;;;5036742;28;20751;-72
2023/05/18 01:48:20;;;;;;;12.00;5.30;;;6.10;99.90;;;;;;5042011;28;20488;-72
2023/05/18 01:50:48;;;;;;;17.03;6.37;;;6.00;99.90;;;;;;5043360;28;20463;-72
2023/05/18 01:53:24;;;;;;;10.40;4.60;;;6.00;99.90;;;;;;5044778;28;20514;-72
2023/05/18 01:55:53;;;;;;;12.27;4.53;;;6.00;99.90;;;;;;5050373;28;20464;-72
2023/05/18 01:58:22;;;;;;;19.63;6.13;;;6.00;99.90;;;;;;5050501;28;20490;-72
2023/05/18 02:00:49;;;;;;;9.47;4.80;;;6.00;99.90;;;;;;5050721;28;20473;-72
2023/05/18 02:03:17;;;;;;;9.87;5.00;;;6.00;99.90;;;;;;5050461;28;20953;-72
2023/05/18 02:05:43;;;;;;;7.10;4.60;;;5.90;99.90;;;;;;5050871;28;20451;-72
2023/05/18 02:08:10;;;;;;;7.90;5.10;;;5.90;99.90;;;;;;5049851;28;20554;-72
2023/05/18 02:10:37;;;;;;;11.87;5.10;;;5.80;99.90;;;;;;5045331;28;20506;-72
2023/05/18 02:13:03;;;;;;;7.27;5.33;;;5.80;99.90;;;;;;5039365;28;20445;-72
2023/05/18 02:15:31;;;;;;;11.90;4.90;;;5.80;99.90;;;;;;5047475;28;20456;-72
2023/05/18 02:17:58;;;;;;;9.13;4.40;;;5.80;99.90;;;;;;5050600;28;20501;-72
2023/05/18 02:20:24;;;;;;;9.13;4.30;;;5.80;99.90;;;;;;5050175;28;20975;-72
2023/05/18 02:22:51;;;;;;;15.63;5.30;;;5.80;99.90;;;;;;5050470;28;20940;-72
2023/05/18 02:25:18;;;;;;;12.90;4.37;;;5.80;99.90;;;;;;5050304;28;20870;-72
2023/05/18 02:27:44;;;;;;;9.63;4.50;;;5.80;99.90;;;;;;5050171;28;20770;-72
2023/05/18 02:30:13;;;;;;;9.67;4.60;;;5.80;99.90;;;;;;5043478;28;20497;-72
2023/05/18 02:32:41;;;;;;;8.93;4.80;;;5.70;99.90;;;;;;5050433;28;20492;-72
2023/05/18 02:35:09;;;;;;;14.20;4.97;;;5.70;99.90;;;;;;5044285;28;20472;-73
2023/05/18 02:37:38;;;;;;;12.83;4.70;;;5.70;99.90;;;;;;5049609;28;20506;-72
2023/05/18 02:40:07;;;;;;;9.43;4.80;;;5.70;99.90;;;;;;5041770;28;20480;-72
2023/05/18 02:42:33;;;;;;;9.00;4.93;;;5.60;99.90;;;;;;5043612;28;20512;-72
2023/05/18 02:45:01;;;;;;;17.33;5.30;;;5.60;99.90;;;;;;5050432;28;20460;-72
2023/05/18 02:47:27;;;;;;;12.90;5.23;;;5.50;99.90;;;;;;5050070;28;20549;-72
2023/05/18 02:49:55;;;;;;;9.00;5.00;;;5.50;99.90;;;;;;5050131;28;20924;-72
2023/05/18 02:52:22;;;;;;;8.80;5.30;;;5.50;99.90;;;;;;5049958;28;20476;-72
2023/05/18 02:54:49;;;;;;;18.30;5.07;;;5.50;99.90;;;;;;5044718;28;20466;-72
2023/05/18 02:57:15;;;;;;;17.93;5.97;;;5.50;99.90;;;;;;5049520;28;20452;-72
2023/05/18 02:59:42;;;;;;;13.07;6.17;;;5.50;99.90;;;;;;5047167;28;20999;-72
2023/05/18 03:02:09;;;;;;;15.27;4.40;;;5.50;99.90;;;;;;5037238;28;20497;-73
2023/05/18 03:04:36;;;;;;;19.97;5.10;;;5.50;99.90;;;;;;5039987;28;20871;-72
2023/05/18 03:07:06;;;;;;;10.80;4.63;;;5.50;99.90;;;;;;5045842;28;20829;-72
2023/05/18 03:09:33;;;;;;;10.67;5.37;;;5.50;99.90;;;;;;5050109;28;20448;-73
2023/05/18 03:12:00;;;;;;;11.60;4.97;;;5.40;99.90;;;;;;5049790;28;20483;-72
2023/05/18 03:14:26;;;;;;;15.03;5.20;;;5.40;99.90;;;;;;5049455;28;20452;-72
2023/05/18 03:16:56;;;;;;;12.60;5.23;;;5.40;99.90;;;;;;5049722;28;20932;-72
2023/05/18 03:19:23;;;;;;;7.90;4.50;;;5.30;99.90;;;;;;5049992;28;20548;-72
2023/05/18 03:21:49;;;;;;;20.83;4.80;;;5.30;99.90;;;;;;5049766;28;20479;-72
2023/05/18 03:24:19;;;;;;;12.10;4.93;;;5.30;99.90;;;;;;5043642;28;20520;-72
2023/05/18 03:26:45;;;;;;;9.00;4.73;;;5.20;99.90;;;;;;5049564;28;20849;-72
2023/05/18 03:29:12;;;;;;;13.30;5.80;;;5.20;99.90;;;;;;5045478;28;20488;-72
2023/05/18 03:31:39;;;;;;;16.10;4.90;;;5.10;99.90;;;;;;5039838;28;20472;-72
2023/05/18 03:34:06;;;;;;;10.70;5.17;;;5.10;99.90;;;;;;5043918;28;20546;-72
2023/05/18 03:36:34;;;;;;;14.90;5.63;;;5.10;99.90;;;;;;5046868;28;20468;-72
2023/05/18 03:39:01;;;;;;;13.17;6.57;;;5.00;99.90;;;;;;5049722;28;20454;-72
2023/05/18 03:41:30;;;;;;;12.63;4.53;;;5.00;99.90;;;;;;5048745;28;20492;-72
2023/05/18 03:43:57;;;;;;;8.77;4.97;;;5.00;99.90;;;;;;5049746;28;20466;-72
2023/05/18 03:46:24;;;;;;;16.47;5.40;;;5.00;99.90;;;;;;5042283;28;20447;-72
2023/05/18 03:48:52;;;;;;;13.10;5.30;;;5.00;99.90;;;;;;5040335;28;20488;-72
2023/05/18 03:51:19;;;;;;;12.50;4.93;;;5.00;99.90;;;;;;5049746;28;20483;-72
2023/05/18 03:53:46;;;;;;;24.00;5.50;;;5.00;99.90;;;;;;5048829;28;20458;-72
2023/05/18 03:56:13;;;;;;;8.67;5.03;;;5.00;99.90;;;;;;5049676;28;20464;-72
2023/05/18 03:58:41;;;;;;;12.80;5.60;;;5.00;99.90;;;;;;5049142;28;20461;-72
2023/05/18 04:01:08;;;;;;;17.27;5.30;;;5.00;99.90;;;;;;5043613;28;20479;-72
2023/05/18 04:03:34;;;;;;;11.13;5.73;;;4.90;99.90;;;;;;5040996;28;20815;-72
2023/05/18 04:06:01;;;;;;;16.73;4.77;;;4.90;99.90;;;;;;5049626;28;20463;-72
2023/05/18 04:08:29;;;;;;;9.80;4.70;;;4.90;99.90;;;;;;5049138;28;20558;-72
2023/05/18 04:10:55;;;;;;;13.57;4.83;;;4.90;99.90;;;;;;5053073;28;20483;-72
2023/05/18 04:13:22;;;;;;;15.67;5.50;;;4.90;99.90;;;;;;5052834;28;20519;-72
2023/05/18 04:15:50;;;;;;;14.40;4.80;;;4.90;99.90;;;;;;5044869;28;21293;-72
2023/05/18 04:18:17;;;;;;;9.03;4.67;;;4.90;99.90;;;;;;5052168;28;20537;-72
2023/05/18 04:20:44;;;;;;;8.97;5.40;;;5.00;99.90;;;;;;5050878;28;20496;-72
2023/05/18 04:23:11;;;;;;;13.90;5.40;;;4.90;99.90;;;;;;5043324;28;20448;-72
2023/05/18 04:25:40;;;;;;;11.43;5.57;;;4.90;99.90;;;;;;5050112;28;20520;-72
2023/05/18 04:28:07;;;;;;;10.93;4.80;;;5.00;99.90;;;;;;5052368;28;20497;-72
2023/05/18 04:30:34;;;;;;;11.87;5.13;;;5.00;99.90;;;;;;5045985;28;21373;-72
2023/05/18 04:33:02;;;;;;;14.43;4.90;;;5.00;99.90;;;;;;5040157;28;20482;-72
2023/05/18 04:35:30;;;;;;;11.30;5.07;;;5.00;99.90;;;;;;5038521;28;20555;-72
2023/05/18 04:37:57;;;;;;;10.20;4.70;;;5.10;99.90;;;;;;5032592;28;20452;-72
2023/05/18 04:40:24;;;;;;;11.40;5.23;;;5.10;99.90;;;;;;5040854;28;20501;-72
2023/05/18 04:42:50;;;;;;;10.60;5.50;;;5.20;99.90;;;;;;5035036;28;20458;-71
2023/05/18 04:45:18;;;;;;;11.83;4.83;;;5.20;99.90;;;;;;5045270;28;20948;-70
2023/05/18 04:47:45;;;;;;;10.43;5.40;;;5.30;99.90;;;;;;5032079;28;20460;-70
2023/05/18 04:50:14;;;;;;;13.93;5.23;;;5.30;99.90;;;;;;5032607;28;20447;-70
2023/05/18 04:52:47;;;;;;;7.17;4.77;;;5.40;99.90;;;;;;5032316;28;20465;-69
2023/05/18 04:55:14;;;;;;;11.40;4.93;;;5.50;99.90;;;;;;5032324;28;20965;-70
2023/05/18 04:57:43;;;;;;;9.20;4.90;;;5.60;99.90;;;;;;5041566;28;20472;-70
2023/05/18 05:00:12;;;;;;;15.53;4.80;;;5.60;99.90;;;;;;5038031;28;20457;-70
2023/05/18 05:02:39;;;;;;;15.70;4.83;;;5.70;99.90;;;;;;5040256;28;20460;-71
2023/05/18 05:05:07;;;;;;;11.10;5.00;;;5.80;99.90;;;;;;5039265;28;20460;-69
2023/05/18 05:07:35;;;;;;;17.77;5.53;;;5.90;99.90;;;;;;5040244;28;20547;-70
2023/05/18 05:10:01;;;;;;;12.33;5.27;;;6.00;99.90;;;;;;5036374;28;20558;-69
2023/05/18 05:12:28;;;;;;;11.57;4.70;;;6.10;99.90;;;;;;5040134;28;20861;-70
2023/05/18 05:14:55;;;;;;;9.83;4.80;;;6.10;99.90;;;;;;5040388;28;20449;-70
2023/05/18 05:17:22;;;;;;;10.37;5.07;;;6.20;99.90;;;;;;5036377;28;20461;-70
2023/05/18 05:19:49;;;;;;;12.40;5.30;;;6.40;99.90;;;;;;5031822;28;20458;-70
2023/05/18 05:22:16;;;;;;;12.67;5.20;;;6.50;99.90;;;;;;5031960;28;20484;-68
2023/05/18 05:24:44;;;;;;;11.10;4.67;;;6.60;99.90;;;;;;5042695;28;20983;-68
2023/05/18 05:27:11;;;;;;;11.37;4.77;;;6.80;99.90;;;;;;5031654;28;20485;-69
2023/05/18 05:29:38;;;;;;;17.43;5.03;;;6.90;99.90;;;;;;5042402;28;20480;-69
2023/05/18 05:32:05;;;;;;;9.93;4.60;;;7.10;99.90;;;;;;5031646;28;20489;-69
2023/05/18 05:34:32;;;;;;;10.23;5.50;;;7.20;99.90;;;;;;5035610;28;20488;-69
2023/05/18 05:36:58;;;;;;;12.03;4.90;;;7.40;99.90;;;;;;5031448;28;20454;-69
2023/05/18 05:39:25;;;;;;;18.77;5.33;;;7.50;99.90;;;;;;5044752;28;20445;-69
2023/05/18 05:41:53;;;;;;;22.93;5.40;;;7.60;99.90;;;;;;5031649;28;20966;-70
2023/05/18 05:44:19;;;;;;;13.73;4.87;;;7.70;99.90;;;;;;5031046;28;20450;-69
2023/05/18 05:46:46;;;;;;;13.53;4.47;;;7.80;99.90;;;;;;5039785;28;20518;-69
2023/05/18 05:49:13;;;;;;;17.33;5.20;;;8.00;99.90;;;;;;5041310;28;21053;-69
2023/05/18 05:51:39;;;;;;;9.30;5.10;;;8.10;99.90;;;;;;5040982;28;20501;-68
2023/05/18 05:54:06;;;;;;;13.20;5.80;;;8.20;99.90;;;;;;5030183;28;20468;-69
2023/05/18 05:56:33;;;;;;;8.97;4.80;;;8.40;99.90;;;;;;5035466;28;21071;-69
2023/05/18 05:59:00;;;;;;;18.23;4.70;;;8.50;99.90;;;;;;5036644;28;21001;-69
2023/05/18 06:01:27;;;;;;;9.20;4.63;;;8.60;99.90;;;;;;5040836;28;20538;-70
2023/05/18 06:03:54;;;;;;;13.90;4.50;;;8.70;99.90;;;;;;5038440;28;20985;-70
2023/05/18 06:06:21;;;;;;;16.33;7.10;;;8.90;99.90;;;;;;5040792;28;20462;-70
2023/05/18 06:08:47;;;;;;;8.70;5.93;;;9.10;99.90;;;;;;5041189;28;20469;-70
2023/05/18 06:11:14;;;;;;;12.07;4.40;;;9.20;99.90;;;;;;5045296;28;20469;-69
2023/05/18 06:13:41;;;;;;;7.10;4.30;;;9.40;99.90;;;;;;5039591;28;20987;-70
2023/05/18 06:16:08;;;;;;;7.73;4.90;;;9.50;99.90;;;;;;5041520;28;20501;-70
2023/05/18 06:18:35;;;;;;;9.50;4.80;;;9.70;99.90;;;;;;5033219;28;20954;-70
2023/05/18 06:21:02;;;;;;;15.00;5.03;;;9.80;99.90;;;;;;5030580;28;20478;-70
2023/05/18 06:23:28;;;;;;;13.97;4.77;;;10.00;99.90;;;;;;5034761;28;20450;-71
2023/05/18 06:25:55;;;;;;;8.57;4.70;;;10.20;99.90;;;;;;5030534;28;20454;-70
2023/05/18 06:28:22;;;;;;;8.50;4.27;;;10.30;99.90;;;;;;5035741;28;20949;-71
2023/05/18 06:30:48;;;;;;;15.00;4.83;;;10.40;99.90;;;;;;5038285;28;20474;-70
2023/05/18 06:33:16;;;;;;;8.77;4.20;;;10.50;99.90;;;;;;5031148;28;20454;-71
2023/05/18 06:35:43;;;;;;;10.27;4.00;;;10.60;99.90;;;;;;5029980;28;20458;-70
2023/05/18 06:38:10;;;;;;;9.67;4.87;;;10.70;99.90;;;;;;5034305;28;20457;-71
2023/05/18 06:40:37;;;;;;;15.63;5.00;;;10.80;99.90;;;;;;5032769;28;20473;-70
2023/05/18 06:43:03;;;;;;;9.10;4.20;;;11.00;99.90;;;;;;5031374;28;20504;-70
2023/05/18 06:45:30;;;;;;;7.67;4.30;;;11.00;99.90;;;;;;5030077;28;20511;-70
2023/05/18 06:47:57;;;;;;;8.27;4.93;;;11.10;99.90;;;;;;5036627;28;20798;-70
2023/05/18 06:50:25;;;;;;;11.43;4.60;;;11.20;99.90;;;;;;5036495;28;20885;-70
2023/05/18 06:52:52;;;;;;;8.90;4.33;;;11.40;99.90;;;;;;5030587;28;20516;-70
2023/05/18 06:55:18;;;;;;;10.43;4.67;;;11.40;99.90;;;;;;5029992;28;20450;-70
2023/05/18 06:57:45;;;;;;;12.50;4.43;;;11.50;99.90;;;;;;5037301;28;20466;-70
2023/05/18 07:00:13;;;;;;;21.97;4.83;;;11.60;99.90;;;;;;5029436;28;20443;-70
2023/05/18 07:02:39;;;;;;;12.33;4.53;;;11.80;99.90;;;;;;5029623;28;20450;-70
2023/05/18 07:05:08;;;;;;;15.03;5.00;;;12.00;99.90;;;;;;5044667;28;20865;-70
2023/05/18 07:07:36;;;;;;;9.47;4.43;;;12.10;99.90;;;;;;5037446;28;20957;-68
2023/05/18 07:10:03;;;;;;;12.10;4.30;;;12.20;99.90;;;;;;5043923;28;20489;-68
2023/05/18 07:12:30;;;;;;;16.83;3.83;;;12.50;99.90;;;;;;5029744;28;20473;-69
2023/05/18 07:14:57;;;;;;;8.87;4.53;;;12.70;99.90;;;;;;5029520;28;20453;-69
2023/05/18 07:17:23;;;;;;;11.13;4.13;;;12.90;99.90;;;;;;5035071;28;20503;-69
2023/05/18 07:19:50;;;;;;;11.43;4.30;;;12.90;99.90;;;;;;5036765;28;20453;-69
2023/05/18 07:22:16;;;;;;;8.13;4.07;;;13.00;99.90;;;;;;5029483;28;20481;-69
2023/05/18 07:24:44;;;;;;;11.57;4.13;;;13.10;99.90;;;;;;5037432;28;20890;-69
2023/05/18 07:27:11;;;;;;;14.20;4.30;;;13.20;99.90;;;;;;5029791;28;20651;-69
2023/05/18 07:29:38;;;;;;;12.17;4.30;;;13.20;99.90;;;;;;5036695;28;20515;-69
2023/05/18 07:32:05;;;;;;;10.63;3.83;;;13.20;99.90;;;;;;5037626;28;20480;-69
2023/05/18 07:34:31;;;;;;;11.03;4.30;;;13.50;99.90;;;;;;5029614;28;20441;-69
2023/05/18 07:36:58;;;;;;;12.50;3.93;;;13.70;99.90;;;;;;5034007;28;20516;-69
2023/05/18 07:39:27;;;;;;;8.70;4.07;;;13.80;99.90;;;;;;5037573;28;20496;-69
2023/05/18 07:41:56;;;;;;;12.10;4.00;;;13.90;99.90;;;;;;5033245;28;20493;-68
2023/05/18 07:44:23;;;;;;;11.17;3.87;;;14.00;99.90;;;;;;5030130;28;21140;-68
2023/05/18 07:46:49;;;;;;;5.93;3.90;;;14.10;99.90;;;;;;5034627;28;20539;-70
2023/05/18 07:49:16;;;;;;;13.40;4.40;;;14.30;99.90;;;;;;5032699;28;21005;-70
2023/05/18 07:51:42;;;;;;;7.30;4.13;;;14.50;99.90;;;;;;5039851;28;20472;-69
2023/05/18 07:54:09;;;;;;;10.83;4.23;;;14.80;99.90;;;;;;5039353;28;20503;-70
2023/05/18 07:56:36;;;;;;;7.97;3.70;;;14.90;99.90;;;;;;5033203;28;20446;-70
2023/05/18 07:59:04;;;;;;;10.33;3.67;;;15.00;99.90;;;;;;5032723;28;20504;-70
2023/05/18 08:01:30;;;;;;;10.00;4.13;;;15.20;99.90;;;;;;5033071;28;20822;-70
2023/05/18 08:03:57;;;;;;;9.40;3.50;;;15.40;99.90;;;;;;5035420;28;20491;-71
2023/05/18 08:06:24;;;;;;;11.30;3.63;;;15.50;99.90;;;;;;5039131;28;20809;-70
2023/05/18 08:08:50;;;;;;;9.00;3.53;;;15.50;99.90;;;;;;5040464;28;20956;-70
2023/05/18 08:11:17;;;;;;;11.00;4.00;;;15.70;99.90;;;;;;5032958;28;20520;-70
2023/05/18 08:13:44;;;;;;;10.83;3.93;;;15.90;99.90;;;;;;5040967;28;20453;-70
2023/05/18 08:16:12;;;;;;;11.37;3.90;;;15.90;99.90;;;;;;5036588;28;20831;-70
2023/05/18 08:18:38;;;;;;;11.37;3.53;;;16.00;99.90;;;;;;5044077;28;20452;-70
2023/05/18 08:21:07;;;;;;;9.67;3.90;;;16.10;99.90;;;;;;5040267;28;20977;-71
2023/05/18 08:23:34;;;;;;;10.40;3.43;;;16.10;99.90;;;;;;5041968;28;20893;-69
2023/05/18 08:26:02;;;;;;;9.13;2.90;;;16.20;99.90;;;;;;5038900;28;20450;-70
2023/05/18 08:28:29;;;;;;;9.10;3.50;;;16.30;99.90;;;;;;5037990;28;20953;-70
2023/05/18 08:30:55;;;;;;;8.17;3.70;;;16.20;99.90;;;;;;5040337;28;20496;-71
2023/05/18 08:33:23;;;;;;;8.93;3.50;;;16.50;99.90;;;;;;5033649;28;20450;-70
2023/05/18 08:35:50;;;;;;;7.83;3.43;;;16.80;99.90;;;;;;5035708;28;20457;-71
2023/05/18 08:38:16;;;;;;;9.23;3.63;;;17.10;99.90;;;;;;5043182;28;20462;-70
2023/05/18 08:40:58;;;;;;;10.33;3.60;;;17.30;99.90;;;;;;5032119;28;20468;-69
2023/05/18 08:43:32;;;;;;;9.50;3.00;;;17.40;99.90;;;;;;5040099;28;20450;-70
2023/05/18 08:46:05;;;;;;;10.13;3.67;;;17.30;99.90;;;;;;5039733;28;20946;-71
2023/05/18 08:48:33;;;;;;;10.03;3.27;;;17.50;99.90;;;;;;5042084;28;20956;-70
2023/05/18 08:51:03;;;;;;;12.60;3.47;;;17.60;99.90;;;;;;5032848;28;20493;-70
2023/05/18 08:53:30;;;;;;;5.30;3.20;;;17.70;99.90;;;;;;5033156;28;20545;-70
2023/05/18 08:56:00;;;;;;;9.23;3.83;;;17.80;99.90;;;;;;5030858;28;20446;-71
2023/05/18 08:58:32;;;;;;;7.60;3.40;;;17.80;99.90;;;;;;5036825;28;20496;-69
2023/05/18 09:00:59;;;;;;;10.13;4.07;;;17.70;99.90;;;;;;5037741;28;20439;-69
2023/05/18 09:03:26;;;;;;;8.13;3.60;;;17.60;99.90;;;;;;5031881;28;21148;-70
2023/05/18 09:05:56;;;;;;;11.20;3.93;;;17.80;99.90;;;;;;5031638;28;20461;-69
2023/05/18 09:08:23;;;;;;;9.17;3.80;;;18.10;99.90;;;;;;5031474;28;20425;-69
2023/05/18 09:10:52;;;;;;;6.47;3.10;;;18.40;99.90;;;;;;5031117;28;20547;-69
2023/05/18 09:13:20;;;;;;;6.53;2.93;;;18.50;99.90;;;;;;5031788;28;20431;-69
2023/05/18 09:15:46;;;;;;;8.57;3.67;;;18.60;99.90;;;;;;5039703;28;20517;-70
2023/05/18 09:18:13;;;;;;;10.20;3.60;;;18.60;99.90;;;;;;5037549;28;20435;-70
2023/05/18 09:20:40;;;;;;;7.63;3.50;;;18.60;99.90;;;;;;5032494;28;20496;-69
2023/05/18 09:23:10;;;;;;;12.43;3.63;;;18.50;99.90;;;;;;5033237;28;20537;-69
2023/05/18 09:25:44;;;;;;;8.47;3.17;;;18.40;99.90;;;;;;5035733;28;20424;-70
2023/05/18 09:28:12;;;;;;;8.10;3.70;;;18.50;99.90;;;;;;5035021;28;20453;-69
2023/05/18 09:30:42;;;;;;;11.50;3.17;;;18.70;99.90;;;;;;5036791;28;20460;-69
2023/05/18 09:33:17;;;;;;;6.97;3.00;;;18.90;99.90;;;;;;5041341;28;20503;-69
2023/05/18 09:35:44;;;;;;;13.43;3.87;;;19.00;99.90;;;;;;5033217;28;20505;-69
2023/05/18 09:38:16;;;;;;;10.87;3.40;;;19.30;99.90;;;;;;5035310;28;20431;-69
2023/05/18 09:40:45;;;;;;;8.27;3.40;;;19.50;99.90;;;;;;5041939;28;20541;-69
2023/05/18 09:43:12;;;;;;;9.33;3.50;;;19.90;99.90;;;;;;5040326;28;20451;-70
2023/05/18 09:45:43;;;;;;;7.30;3.50;;;19.90;99.90;;;;;;5042467;28;20823;-69
2023/05/18 09:48:10;;;;;;;12.10;3.33;;;20.00;99.90;;;;;;5040528;28;20845;-70
2023/05/18 09:50:37;;;;;;;8.50;3.50;;;20.20;99.90;;;;;;5037780;28;20516;-70
2023/05/18 09:53:07;;;;;;;8.30;3.50;;;20.10;99.90;;;;;;5035398;28;20439;-70
2023/05/18 09:55:37;;;;;;;9.50;4.03;;;20.10;99.90;;;;;;5030654;28;20424;-71
2023/05/18 09:58:06;;;;;;;14.40;4.67;;;20.40;99.90;;;;;;5038616;28;20439;-70
2023/05/18 10:00:38;;;;;;;8.90;3.40;;;20.60;99.90;;;;;;5030854;28;20465;-70
2023/05/18 10:03:16;;;;;;;8.27;3.00;;;20.60;99.90;;;;;;5030900;28;20453;-70
2023/05/18 10:05:42;;;;;;;6.17;3.00;;;20.70;99.90;;;;;;5038345;28;20468;-70
2023/05/18 10:08:11;;;;;;;7.17;3.33;;;21.10;99.90;;;;;;5038019;28;20428;-70
2023/05/18 10:10:41;;;;;;;10.50;3.33;;;20.80;99.90;;;;;;5034256;28;20489;-70
2023/05/18 10:13:08;;;;;;;6.30;3.17;;;20.20;99.90;;;;;;5036685;28;20987;-70
2023/05/18 10:15:36;;;;;;;9.33;3.17;;;20.00;99.90;;;;;;5037304;28;21167;-70
2023/05/18 10:18:06;;;;;;;8.00;2.97;;;20.30;99.90;;;;;;5045546;28;20525;-70
2023/05/18 10:20:33;;;;;;;9.20;3.70;;;20.40;99.90;;;;;;5030212;28;20516;-70
2023/05/18 10:23:06;;;;;;;8.47;3.20;;;20.80;99.90;;;;;;5031744;28;20901;-70
2023/05/18 10:25:34;;;;;;;14.13;3.10;;;21.10;99.90;;;;;;5034861;28;21002;-70
2023/05/18 10:28:06;;;;;;;10.40;3.37;;;21.30;99.90;;;;;;5029802;28;20920;-70
2023/05/18 10:30:34;;;;;;;11.40;3.77;;;21.50;99.90;;;;;;5035219;28;20521;-70
2023/05/18 10:33:03;;;;;;;8.73;3.10;;;21.60;99.90;;;;;;5033117;28;20930;-70
2023/05/18 10:35:31;;;;;;;7.90;3.70;;;21.50;99.90;;;;;;5035665;28;20450;-71
2023/05/18 10:37:59;;;;;;;9.83;4.03;;;21.40;99.90;;;;;;5035015;28;20450;-70
2023/05/18 10:40:28;;;;;;;11.20;3.87;;;21.50;99.90;;;;;;5036202;28;20446;-71
2023/05/18 10:42:57;;;;;;;12.50;6.30;;;21.70;99.90;;;;;;5037803;28;21000;-70
2023/05/18 10:45:27;;;;;;;9.33;3.43;;;21.30;99.90;;;;;;5029812;28;20449;-70
2023/05/18 10:47:54;;;;;;;7.67;3.40;;;21.20;99.90;;;;;;5031436;28;20478;-70
2023/05/18 10:50:23;;;;;;;8.93;3.83;;;21.20;99.90;;;;;;5030446;28;20481;-71
2023/05/18 10:52:51;;;;;;;10.93;3.27;;;21.30;99.90;;;;;;5031166;28;20430;-70
2023/05/18 10:55:19;;;;;;;9.30;3.50;;;21.20;99.90;;;;;;5033236;28;20503;-70
2023/05/18 10:57:51;;;;;;;17.87;4.00;;;21.20;99.90;;;;;;5032883;28;20515;-70
2023/05/18 11:00:19;;;;;;;15.20;3.63;;;21.30;99.90;;;;;;5038003;28;20706;-71
2023/05/18 11:02:49;;;;;;;7.27;3.60;;;21.20;99.90;;;;;;5031192;28;20503;-71
2023/05/18 11:05:25;;;;;;;9.23;3.70;;;20.60;99.90;;;;;;5029814;28;20527;-71
2023/05/18 11:08:00;;;;;;;8.87;3.57;;;20.30;99.90;;;;;;5029297;28;20510;-71
2023/05/18 11:10:33;;;;;;;8.03;3.00;;;20.20;99.90;;;;;;5029506;28;20494;-71
2023/05/18 11:13:01;;;;;;;8.57;3.33;;;20.40;99.90;;;;;;5038605;28;20464;-71
2023/05/18 11:16:00;;;;;;;8.00;3.23;;;20.70;99.90;;;;;;5029796;28;20446;-70
2023/05/18 11:18:35;;;;;;;9.47;2.67;;;20.70;99.90;;;;;;5031420;28;20449;-71
2023/05/18 11:21:02;;;;;;;15.83;3.27;;;20.60;99.90;;;;;;5036074;28;20795;-71
2023/05/18 11:23:31;;;;;;;6.13;3.40;;;20.80;99.90;;;;;;5046346;28;20510;-71
2023/05/18 11:26:01;;;;;;;6.13;2.60;;;20.90;99.90;;;;;;5039295;28;20461;-71
2023/05/18 11:28:28;;;;;;;7.40;3.20;;;20.80;99.90;;;;;;5032973;28;20940;-71
2023/05/18 11:30:55;;;;;;;8.70;2.80;;;20.90;99.90;;;;;;5038958;28;20493;-71
2023/05/18 11:33:26;;;;;;;9.43;5.87;;;21.00;99.90;;;;;;5036883;28;20448;-70
2023/05/18 11:36:01;;;;;;;6.33;3.80;;;21.20;99.90;;;;;;5043067;28;20451;-71
2023/05/18 11:38:46;;;;;;;15.80;4.50;;;21.20;99.90;;;;;;5032823;28;20448;-71
2023/05/18 11:41:27;;;;;;;13.20;4.40;;;21.10;99.90;;;;;;5039864;28;20465;-71
2023/05/18 11:44:13;;;;;;;15.63;4.57;;;21.20;99.90;;;;;;5033210;28;20452;-69
2023/05/18 11:46:51;;;;;;;10.83;3.63;;;21.10;99.90;;;;;;5031940;28;20560;-70
2023/05/18 11:49:19;;;;;;;6.50;4.10;;;21.40;99.90;;;;;;5034963;28;20462;-70
2023/05/18 11:52:04;;;;;;;11.67;3.50;;;21.60;99.90;;;;;;5037957;28;20492;-70
2023/05/18 11:54:37;;;;;;;8.83;3.83;;;21.00;99.40;;;;;;5039005;28;20453;-70
2023/05/18 11:57:04;;;;;;;7.67;3.00;;;21.00;99.90;;;;;;5035997;28;20452;-70
2023/05/18 11:59:33;;;;;;;10.77;4.60;;;21.10;99.00;;;;;;5032552;28;20453;-70
2023/05/18 12:02:01;;;;;;;8.57;3.67;;;21.00;99.90;;;;;;5041095;28;20527;-70
2023/05/18 12:04:28;;;;;;;9.37;4.40;;;21.10;99.90;;;;;;5034409;28;20452;-70
2023/05/18 12:06:57;;;;;;;8.53;3.50;;;21.00;98.80;;;;;;5032765;28;20449;-70
2023/05/18 12:09:25;;;;;;;9.50;3.30;;;21.30;99.90;;;;;;5037463;28;20440;-69
2023/05/18 12:11:52;;;;;;;10.37;3.30;;;21.50;99.90;;;;;;5043229;28;20565;-70
2023/05/18 12:14:20;;;;;;;9.03;3.70;;;21.60;98.80;;;;;;5040690;28;20453;-70
2023/05/18 12:16:47;;;;;;;11.87;4.87;;;21.50;97.90;;;;;;5040486;28;20448;-70
2023/05/18 12:19:14;;;;;;;9.43;3.47;;;21.60;99.10;;;;;;5040385;28;21130;-70
2023/05/18 12:21:40;;;;;;;8.13;3.30;;;21.70;97.90;;;;;;5040668;28;20874;-70
2023/05/18 12:24:08;;;;;;;7.67;3.60;;;21.60;98.20;;;;;;5040083;28;20509;-70
2023/05/18 12:26:37;;;;;;;10.23;3.23;;;21.50;99.90;;;;;;5032384;28;20785;-70
2023/05/18 12:29:04;;;;;;;7.40;3.80;;;21.80;99.90;;;;;;5041914;28;20536;-70
2023/05/18 12:31:31;;;;;;;9.50;3.67;;;22.00;99.00;;;;;;5048174;28;21013;-70
2023/05/18 12:33:58;;;;;;;11.60;3.00;;;22.20;99.10;;;;;;5039630;28;20457;-70
2023/05/18 12:36:26;;;;;;;9.73;3.50;;;22.40;98.60;;;;;;5039359;28;20449;-71
2023/05/18 12:38:52;;;;;;;9.13;3.80;;;22.60;99.00;;;;;;5043680;28;20491;-71
2023/05/18 12:41:23;;;;;;;6.97;3.50;;;22.70;99.90;;;;;;5032785;28;20473;-70
2023/05/18 12:43:53;;;;;;;10.43;3.57;;;22.70;99.10;;;;;;5047706;28;20810;-70
2023/05/18 12:46:21;;;;;;;20.87;5.63;;;22.10;96.80;;;;;;5040154;28;20460;-70
2023/05/18 12:48:56;;;;;;;7.83;4.20;;;22.20;98.00;;;;;;5034142;28;20962;-70
2023/05/18 12:51:29;;;;;;;9.63;3.07;;;22.30;98.50;;;;;;5043566;28;20590;-70